Dillon, CO

9:05 AM MDT on September 17, 2014 (GMT -0600)
Last Chance | Change Station
CLOSE
Current Station
Personal Weather Station
Location: Keystone, CO
Elevation: 9262 ft
Nearby Weather Stations

Elev 9262 ft 39.60 °N, 105.98 °W | Updated 3 seconds ago

Clear
Clear
45.1 °F
Feels Like 45 °F
N
2.0
Wind Variable Wind from SSW
Gusts 2.0 mph

Today
High -- | Low -- °F
--% Chance of Precip.
Yesterday
High -- | Low -- °F
Precip. -- in
6:46 AM 7:09 PM
Waning Crescent, 35% visible
Pressure 30.03 in
Visibility 10.0 miles
Clouds Clear
Windchill 45 °F
Dew Point 38 °F
Humidity 75%
Rainfall 0.00 in
Snow Depth 0 in , 87 in , 0 in
UV 2 out of 12
Pollen 7.70 out of 12
Air Quality Not available.
Flu Activity Not available.
METAR KLXV 171453Z AUTO 00000KT 10SM CLR 11/01 A3045 RMK AO2 SLP167 T01060006 52003

More Conditions Fewer Conditions

Pressure 30.03 in
Visibility 10.0 miles
Clouds Clear
Windchill 45 °F
Dew Point 38 °F
Humidity 75%
Rainfall 0.00 in
Snow Depth 0 in , 87 in , 0 in
UV 2 out of 12
Pollen 7.70 out of 12
Air Quality Not available.
Flu Activity Not available.
METAR KLXV 171453Z AUTO 00000KT 10SM CLR 11/01 A3045 RMK AO2 SLP167 T01060006 52003

More Conditions Fewer Conditions

10-Day Weather Forecast

Almanac

Astronomy

Sep. 17, 2014 Rise Set
Actual Time 6:46 AM MDT 7:09 PM MDT
Civil Twilight 6:20 AM MDT 7:35 PM MDT
Nautical Twilight 5:48 AM MDT 8:07 PM MDT
Astronomical Twilight 5:15 AM MDT 8:39 PM MDT
Moon 12:50 AM MDT 3:19 PM MDT
Length of Visible Light 13h 15m
Length of Day
12h 22m
Tomorrow will be 2m 33s shorter.
Waning Crescent, 35% of the Moon is Illuminated
Today
Waning Crescent
Sep 24
New
Oct 1
First Quarter
Oct 8
Full
Oct 15
Last Quarter

Today's Extremes

State Highs State Lows

Community

WunderPhotos

Upload Photos

1,754,064 photos uploaded!

WunderBlogs® & News

Nearby

Snow Depth

Station Depth Elevation
North Lost Trail 0 in 9200 ft
Vail Mountain 87 in 10300 ft
Brumley 0 in 10600 ft
Porphyry Creek 0 in 10760 ft
Berthoud Summit 0 in 11300 ft

Earthquake Activity

City Distance Mag. Time & Date
No recent earthquake activity has been reported nearby.
Minimum magnitude displayed is 2.5.

Coastal Water Temperatures

Place Temperature
No Stations Reporting

Nearby Weather Stations